createdAt,value
2019-03-21T00:00:00.362Z,75.48
2019-03-21T00:02:32.174Z,75.68
2019-03-21T00:05:17.971Z,75.96
2019-03-21T00:08:09.127Z,75.92
2019-03-21T00:11:15.386Z,76.32
2019-03-21T00:13:46.959Z,75.97
2019-03-21T00:16:18.610Z,75.53
2019-03-21T00:19:08.435Z,75.87
2019-03-21T00:21:39.913Z,76.31
2019-03-21T00:24:11.403Z,76.75
2019-03-21T00:27:01.568Z,77.03
2019-03-21T00:29:51.697Z,77.15
2019-03-21T00:32:22.919Z,77.19
2019-03-21T00:35:13.026Z,76.94
2019-03-21T00:38:02.906Z,77.45
2019-03-21T00:40:36.500Z,77.76
2019-03-21T00:43:10.334Z,77.49
2019-03-21T00:46:00.181Z,77.86
2019-03-21T00:48:31.922Z,78.00
2019-03-21T00:51:21.747Z,78.49
2019-03-21T00:54:11.603Z,78.29
2019-03-21T00:56:43.172Z,78.19
2019-03-21T00:59:15.686Z,78.28
2019-03-21T01:01:46.915Z,78.51
2019-03-21T01:04:18.395Z,78.24
2019-03-21T01:06:49.854Z,78.36
2019-03-21T01:09:21.258Z,78.47
2019-03-21T01:11:52.760Z,78.12
2019-03-21T01:14:29.718Z,78.47
2019-03-21T01:17:15.746Z,78.39
2019-03-21T01:20:06.645Z,78.27
2019-03-21T01:22:57.361Z,78.98
2019-03-21T01:25:32.489Z,78.75
2019-03-21T01:28:26.550Z,78.67
2019-03-21T01:30:57.785Z,78.50
2019-03-21T01:33:29.261Z,78.66
2019-03-21T01:36:19.912Z,78.73
2019-03-21T01:39:10.033Z,79.31
2019-03-21T01:42:00.160Z,79.53
2019-03-21T01:44:40.602Z,79.36
2019-03-21T01:47:23.091Z,79.52
2019-03-21T01:49:54.411Z,79.44
2019-03-21T01:52:44.913Z,79.29
2019-03-21T01:55:26.551Z,79.74
2019-03-21T01:57:58.525Z,79.92
2019-03-21T02:00:48.807Z,80.01
2019-03-21T02:03:20.033Z,79.96
2019-03-21T02:05:51.269Z,79.87
2019-03-21T02:08:41.178Z,79.97
2019-03-21T02:11:31.022Z,79.77
2019-03-21T02:14:22.111Z,79.77
2019-03-21T02:16:53.450Z,80.18
2019-03-21T02:22:02.897Z,79.70
2019-03-21T02:25:30.411Z,79.96
2019-03-21T02:28:20.265Z,80.40
2019-03-21T02:31:10.447Z,80.19
2019-03-21T02:33:41.985Z,80.29
2019-03-21T02:36:32.212Z,80.62
2019-03-21T02:39:22.041Z,80.27
2019-03-21T02:41:55.955Z,80.49
2019-03-21T02:44:46.650Z,80.56
2019-03-21T02:47:19.119Z,80.64
2019-03-21T02:49:50.376Z,81.34
2019-03-21T02:52:41.559Z,81.05
2019-03-21T02:55:31.401Z,81.30
2019-03-21T02:58:13.397Z,81.30
2019-03-21T03:00:55.166Z,81.22
2019-03-21T03:03:26.770Z,80.87
2019-03-21T03:06:00.446Z,80.17
2019-03-21T03:08:31.943Z,80.37
2019-03-21T03:11:03.640Z,80.62
2019-03-21T03:13:34.827Z,80.68
2019-03-21T03:16:06.071Z,80.67
2019-03-21T03:18:55.862Z,80.97
2019-03-21T03:21:45.707Z,81.24
2019-03-21T03:24:36.374Z,81.28
2019-03-21T03:27:26.224Z,81.40
2019-03-21T03:29:57.829Z,81.39
2019-03-21T03:32:48.029Z,81.59
2019-03-21T03:35:37.872Z,81.58
2019-03-21T03:38:27.672Z,81.53
2019-03-21T03:41:00.366Z,81.65
2019-03-21T03:43:31.693Z,81.15
2019-03-21T03:46:03.334Z,81.87
2019-03-21T03:48:53.403Z,81.68
2019-03-21T03:51:43.581Z,81.88
2019-03-21T03:54:34.256Z,81.86
2019-03-21T03:57:15.975Z,81.94
2019-03-21T04:02:24.856Z,81.47
2019-03-21T04:05:16.715Z,81.35
2019-03-21T04:08:08.230Z,81.20
2019-03-21T04:10:50.055Z,81.39
2019-03-21T04:13:21.892Z,81.30
2019-03-21T04:16:12.117Z,81.78
2019-03-21T04:18:43.306Z,81.46
2019-03-21T04:21:33.397Z,81.80
2019-03-21T04:24:22.418Z,82.14
2019-03-21T04:26:53.839Z,81.97
2019-03-21T04:29:25.469Z,81.93
2019-03-21T04:31:56.784Z,82.00
2019-03-21T04:34:27.955Z,82.28
2019-03-21T04:36:59.753Z,82.69
2019-03-21T04:39:49.610Z,82.72
2019-03-21T04:42:39.476Z,82.63
2019-03-21T04:45:29.691Z,82.51
2019-03-21T04:48:00.917Z,82.14
2019-03-21T04:50:51.173Z,82.19
2019-03-21T04:53:33.431Z,82.27
2019-03-21T04:56:15.270Z,82.58
2019-03-21T04:58:46.464Z,82.56
2019-03-21T05:01:17.695Z,82.59
2019-03-21T05:04:07.904Z,82.55
2019-03-21T05:06:57.754Z,82.69
2019-03-21T05:09:47.560Z,82.56
2019-03-21T05:12:37.390Z,82.08
2019-03-21T05:15:11.738Z,82.04
2019-03-21T05:18:03.580Z,81.82
2019-03-21T05:20:53.963Z,81.81
2019-03-21T05:23:25.418Z,81.99
2019-03-21T05:25:56.707Z,81.83
2019-03-21T05:28:46.967Z,81.59
2019-03-21T05:31:36.954Z,82.00
2019-03-21T05:34:26.763Z,81.42
2019-03-21T05:36:57.972Z,81.45
2019-03-21T05:39:52.165Z,81.77
2019-03-21T05:42:25.807Z,81.48
2019-03-21T05:45:15.767Z,81.46
2019-03-21T05:48:05.853Z,81.96
2019-03-21T05:50:37.860Z,81.45
2019-03-21T05:53:21.957Z,81.88
2019-03-21T05:56:04.320Z,81.73
2019-03-21T05:58:36.145Z,81.69
2019-03-21T06:01:26.245Z,81.53
2019-03-21T06:04:16.168Z,81.37
2019-03-21T06:07:09.123Z,81.58
2019-03-21T06:09:59.166Z,81.52
2019-03-21T06:12:49.646Z,81.39
2019-03-21T06:15:39.744Z,81.17
2019-03-21T06:18:32.837Z,80.66
2019-03-21T06:22:04.240Z,80.72
2019-03-21T06:24:30.827Z,80.10
2019-03-21T06:27:39.207Z,79.63
2019-03-21T06:30:29.116Z,79.45
2019-03-21T06:33:00.689Z,81.59
2019-03-21T06:35:31.852Z,78.79
2019-03-21T06:38:04.787Z,77.41
2019-03-21T06:40:36.527Z,77.23
2019-03-21T06:43:26.582Z,76.92
2019-03-21T06:46:16.464Z,76.42
2019-03-21T06:52:17.328Z,77.00
2019-03-21T06:55:05.078Z,77.61
2019-03-21T06:57:55.171Z,77.13
2019-03-21T07:00:26.496Z,76.96
2019-03-21T07:02:59.602Z,76.40
2019-03-21T07:05:49.473Z,75.56
2019-03-21T07:08:20.719Z,74.66
2019-03-21T07:10:52.256Z,74.10
2019-03-21T07:13:23.591Z,73.43
2019-03-21T07:16:06.092Z,73.05
2019-03-21T07:18:37.385Z,73.22
2019-03-21T07:21:09.369Z,72.90
2019-03-21T07:24:00.338Z,72.80
2019-03-21T07:26:32.221Z,72.52
2019-03-21T07:29:22.074Z,73.58
2019-03-21T07:31:53.287Z,73.51
2019-03-21T07:34:24.827Z,72.38
2019-03-21T07:37:14.706Z,71.04
2019-03-21T07:39:46.031Z,68.92
2019-03-21T07:42:36.146Z,63.38
2019-03-21T07:45:07.850Z,60.76
2019-03-21T07:47:39.450Z,58.01
2019-03-21T07:50:11.999Z,55.36
2019-03-21T07:53:02.202Z,53.96
2019-03-21T07:55:51.988Z,51.55
2019-03-21T07:58:41.834Z,49.06
2019-03-21T08:01:31.716Z,45.70
2019-03-21T08:04:21.996Z,41.36
2019-03-21T08:07:12.138Z,41.16
2019-03-21T08:09:43.491Z,37.95
2019-03-21T08:12:33.417Z,37.50
2019-03-21T08:15:05.401Z,36.02
2019-03-21T08:17:55.300Z,36.55
2019-03-21T08:20:26.651Z,36.23
2019-03-21T08:23:16.634Z,36.63
2019-03-21T08:26:06.593Z,33.77
2019-03-21T08:28:37.757Z,34.17
2019-03-21T08:31:27.699Z,31.63
2019-03-21T08:34:17.574Z,30.38
2019-03-21T08:37:07.466Z,31.80
2019-03-21T08:39:57.908Z,30.10
2019-03-21T08:42:47.820Z,31.17
2019-03-21T08:45:37.668Z,31.18
2019-03-21T08:48:27.525Z,29.78
2019-03-21T08:51:07.746Z,29.70
2019-03-21T08:53:50.514Z,28.90
2019-03-21T08:56:40.368Z,28.81
2019-03-21T08:59:11.604Z,27.75
2019-03-21T09:02:01.487Z,27.66
2019-03-21T09:04:43.563Z,27.55
2019-03-21T09:07:25.653Z,26.08
2019-03-21T09:10:07.996Z,25.89
2019-03-21T09:12:58.159Z,25.88
2019-03-21T09:15:29.511Z,25.19
2019-03-21T09:18:19.516Z,24.42
2019-03-21T09:20:51.288Z,24.29
2019-03-21T09:23:22.813Z,23.97
2019-03-21T09:26:12.874Z,23.37
2019-03-21T09:29:02.962Z,22.34
2019-03-21T09:31:34.537Z,23.04
2019-03-21T09:34:24.384Z,23.16
2019-03-21T09:37:14.309Z,22.51
2019-03-21T09:40:04.546Z,21.96
2019-03-21T09:42:55.422Z,22.69
2019-03-21T09:45:28.078Z,22.54
2019-03-21T09:47:59.876Z,22.77
2019-03-21T09:50:49.759Z,23.58
2019-03-21T09:53:40.517Z,23.54
2019-03-21T09:56:30.455Z,22.91
2019-03-21T09:59:01.718Z,23.44
2019-03-21T10:01:51.648Z,24.04
2019-03-21T10:04:33.353Z,24.52
2019-03-21T10:07:15.423Z,24.46
2019-03-21T10:09:57.376Z,25.30
2019-03-21T10:12:39.351Z,26.64
2019-03-21T10:15:29.595Z,27.45
2019-03-21T10:18:19.566Z,28.22
2019-03-21T10:21:09.549Z,29.73
2019-03-21T10:23:40.885Z,29.88
2019-03-21T10:26:30.814Z,29.26
2019-03-21T10:29:20.701Z,29.32
2019-03-21T10:32:14.438Z,28.43
2019-03-21T10:35:03.286Z,28.05
2019-03-21T10:37:53.219Z,27.37
2019-03-21T10:40:43.155Z,26.52
2019-03-21T10:43:32.982Z,27.52
2019-03-21T10:46:22.950Z,27.12
2019-03-21T10:49:12.782Z,27.59
2019-03-21T10:52:02.641Z,27.12
2019-03-21T10:54:52.649Z,27.75
2019-03-21T10:57:42.723Z,26.83
2019-03-21T11:00:32.497Z,27.73
2019-03-21T11:03:08.807Z,27.84
2019-03-21T11:05:58.692Z,26.93
2019-03-21T11:08:41.049Z,27.09
2019-03-21T11:11:23.132Z,27.70
2019-03-21T11:14:04.869Z,28.06
2019-03-21T11:16:45.714Z,28.60
2019-03-21T11:19:17.294Z,29.12
2019-03-21T11:22:07.295Z,29.96
2019-03-21T11:24:57.252Z,30.41
2019-03-21T11:27:29.082Z,29.84
2019-03-21T11:30:39.085Z,29.39
2019-03-21T11:33:11.169Z,29.80
2019-03-21T11:35:42.775Z,29.20
2019-03-21T11:38:14.901Z,28.81
2019-03-21T11:41:04.924Z,29.57
2019-03-21T11:43:36.413Z,28.97
2019-03-21T11:46:09.075Z,29.42
2019-03-21T11:48:58.991Z,29.09
2019-03-21T11:52:17.770Z,30.13
2019-03-21T11:58:22.204Z,29.94
2019-03-21T12:01:13.278Z,29.45
2019-03-21T12:04:04.272Z,28.65
2019-03-21T12:06:54.983Z,28.58
2019-03-21T12:09:31.854Z,29.35
2019-03-21T12:12:22.746Z,27.84
2019-03-21T12:14:58.056Z,26.66
2019-03-21T12:17:48.694Z,27.75
2019-03-21T12:20:33.191Z,27.16
2019-03-21T12:23:05.722Z,27.20
2019-03-21T12:25:57.738Z,27.01
2019-03-21T12:28:30.138Z,27.59
2019-03-21T12:31:20.351Z,27.84
2019-03-21T12:34:35.758Z,27.06
2019-03-21T12:37:26.158Z,27.41
2019-03-21T12:40:16.298Z,27.11
2019-03-21T12:43:06.532Z,26.93
2019-03-21T12:45:56.401Z,25.94
2019-03-21T12:48:46.343Z,26.76
2019-03-21T12:51:36.620Z,26.65
2019-03-21T12:54:27.371Z,26.03
2019-03-21T12:57:17.347Z,25.72
2019-03-21T12:59:59.044Z,25.80
2019-03-21T13:02:32.144Z,26.35
2019-03-21T13:05:04.218Z,26.00
2019-03-21T13:07:35.534Z,25.26
2019-03-21T13:10:14.413Z,25.56
2019-03-21T13:13:04.516Z,25.35
2019-03-21T13:15:38.634Z,25.68
2019-03-21T13:18:20.460Z,25.99
2019-03-21T13:20:51.896Z,24.39
2019-03-21T13:23:23.485Z,24.72
2019-03-21T13:26:13.363Z,23.97
2019-03-21T13:29:03.191Z,23.71
2019-03-21T13:31:35.163Z,23.82
2019-03-21T13:34:24.984Z,23.07
2019-03-21T13:36:57.767Z,22.82
2019-03-21T13:39:47.606Z,21.75
2019-03-21T13:42:19.638Z,22.06
2019-03-21T13:45:09.747Z,21.08
2019-03-21T13:47:59.761Z,21.05
2019-03-21T13:50:31.137Z,21.59
2019-03-21T13:53:20.994Z,22.74
2019-03-21T13:55:55.076Z,23.36
2019-03-21T13:58:26.703Z,23.78
2019-03-21T14:00:58.475Z,24.48
2019-03-21T14:03:48.607Z,24.65
2019-03-21T14:06:20.632Z,23.35
2019-03-21T14:08:51.910Z,22.91
2019-03-21T14:11:42.046Z,22.40
2019-03-21T14:14:13.260Z,20.91
2019-03-21T14:16:44.501Z,19.31
2019-03-21T14:19:17.136Z,19.01
2019-03-21T14:21:48.461Z,17.62
2019-03-21T14:24:38.418Z,16.85
2019-03-21T14:27:28.316Z,15.83
2019-03-21T14:30:01.598Z,15.75
2019-03-21T14:32:52.048Z,15.28
2019-03-21T14:35:42.025Z,16.64
2019-03-21T14:38:32.499Z,16.91
2019-03-21T14:41:22.378Z,16.98
2019-03-21T14:43:53.813Z,18.36
2019-03-21T14:46:25.370Z,17.92
2019-03-21T14:49:15.296Z,17.98
2019-03-21T14:51:47.872Z,17.58
2019-03-21T14:54:19.467Z,17.19
2019-03-21T14:56:52.662Z,16.50
2019-03-21T14:59:34.935Z,16.25
2019-03-21T15:02:06.564Z,16.35
2019-03-21T15:04:37.774Z,16.55
2019-03-21T15:07:09.020Z,16.19
2019-03-21T15:09:40.920Z,15.87
2019-03-21T15:12:30.761Z,15.36
2019-03-21T15:15:02.179Z,14.85
2019-03-21T15:17:33.684Z,14.02
2019-03-21T15:20:09.714Z,14.22
2019-03-21T15:22:41.150Z,14.33
2019-03-21T15:25:12.984Z,14.24
2019-03-21T15:27:44.611Z,14.50
2019-03-21T15:30:17.895Z,13.97
2019-03-21T15:33:08.165Z,14.86
2019-03-21T15:38:49.776Z,15.77
2019-03-21T15:41:21.413Z,15.14
2019-03-21T15:44:11.538Z,15.55
2019-03-21T15:46:42.829Z,15.77
2019-03-21T15:49:32.688Z,16.21
2019-03-21T15:52:05.818Z,16.36
2019-03-21T15:54:55.702Z,16.19
2019-03-21T15:57:26.885Z,15.05
2019-03-21T16:00:04.956Z,15.64
2019-03-21T16:02:55.329Z,15.70
2019-03-21T16:05:46.129Z,16.44
2019-03-21T16:08:17.532Z,17.22
2019-03-21T16:10:49.155Z,17.56
2019-03-21T16:13:21.090Z,17.87
2019-03-21T16:15:52.847Z,18.18
2019-03-21T16:18:24.698Z,18.09
2019-03-21T16:20:56.394Z,18.66
2019-03-21T16:23:27.703Z,19.88
2019-03-21T16:25:58.935Z,19.66
2019-03-21T16:28:30.494Z,20.48
2019-03-21T16:31:07.814Z,21.89
2019-03-21T16:33:57.830Z,23.41
2019-03-21T16:36:48.135Z,23.78
2019-03-21T16:39:19.349Z,24.27
2019-03-21T16:41:52.119Z,24.88
2019-03-21T16:44:23.535Z,25.67
2019-03-21T16:47:13.779Z,26.09
2019-03-21T16:50:04.559Z,27.25
2019-03-21T16:52:35.790Z,27.30
2019-03-21T16:55:12.307Z,27.42
2019-03-21T16:57:44.114Z,27.42
2019-03-21T17:00:18.274Z,27.57
2019-03-21T17:02:49.983Z,27.87
2019-03-21T17:05:42.142Z,28.98
2019-03-21T17:08:14.155Z,29.07
2019-03-21T17:10:45.556Z,29.73
2019-03-21T17:13:18.256Z,30.55
2019-03-21T17:15:50.080Z,30.81
2019-03-21T17:18:21.379Z,30.59
2019-03-21T17:21:11.385Z,31.39
2019-03-21T17:24:01.263Z,32.62
2019-03-21T17:26:52.526Z,33.06
2019-03-21T17:29:23.789Z,33.22
2019-03-21T17:32:13.881Z,33.28
2019-03-21T17:35:03.723Z,34.15
2019-03-21T17:37:53.561Z,34.86
2019-03-21T17:40:24.769Z,34.85
2019-03-21T17:42:57.560Z,36.13
2019-03-21T17:45:29.235Z,36.18
2019-03-21T17:48:20.622Z,36.10
2019-03-21T17:50:52.438Z,36.77
2019-03-21T17:53:52.901Z,37.29
2019-03-21T17:56:24.515Z,38.18
2019-03-21T17:59:06.105Z,39.40
2019-03-21T18:01:41.744Z,40.14
2019-03-21T18:04:13.498Z,40.29
2019-03-21T18:07:04.301Z,39.54
2019-03-21T18:09:54.149Z,39.83
2019-03-21T18:12:25.529Z,40.27
2019-03-21T18:14:56.822Z,40.88
2019-03-21T18:17:28.425Z,41.94
2019-03-21T18:19:59.981Z,42.10
2019-03-21T18:22:40.862Z,42.67
2019-03-21T18:25:31.186Z,42.99
2019-03-21T18:28:02.574Z,43.54
2019-03-21T18:30:34.076Z,43.71
2019-03-21T18:33:25.540Z,44.57
2019-03-21T18:35:57.391Z,44.55
2019-03-21T18:38:56.788Z,44.19
2019-03-21T18:43:58.457Z,45.24
2019-03-21T18:46:29.741Z,46.15
2019-03-21T18:49:19.863Z,46.48
2019-03-21T18:51:52.059Z,46.81
2019-03-21T18:54:23.927Z,46.80
2019-03-21T18:56:55.656Z,47.29
2019-03-21T18:59:47.771Z,47.69
2019-03-21T19:05:30.971Z,48.23
2019-03-21T19:08:22.080Z,48.08
2019-03-21T19:10:54.702Z,48.09
2019-03-21T19:13:27.073Z,48.90
2019-03-21T19:15:58.372Z,49.00
2019-03-21T19:18:48.320Z,49.36
2019-03-21T19:21:19.800Z,49.68
2019-03-21T19:23:51.575Z,49.96
2019-03-21T19:26:23.448Z,50.27
2019-03-21T19:28:55.093Z,50.58
2019-03-21T19:31:45.646Z,50.85
2019-03-21T19:34:17.351Z,51.15
2019-03-21T19:37:07.445Z,51.26
2019-03-21T19:39:42.310Z,51.66
2019-03-21T19:42:32.412Z,51.95
2019-03-21T19:45:22.435Z,52.89
2019-03-21T19:48:12.844Z,52.86
2019-03-21T19:50:44.454Z,53.16
2019-03-21T19:53:34.446Z,52.70
2019-03-21T19:56:24.548Z,51.82
2019-03-21T19:59:06.528Z,52.58
2019-03-21T20:01:48.166Z,53.27
2019-03-21T20:04:19.674Z,53.86
2019-03-21T20:07:09.939Z,54.05
2019-03-21T20:09:41.342Z,54.29
2019-03-21T20:12:12.579Z,54.53
2019-03-21T20:15:02.649Z,54.70
2019-03-21T20:17:36.031Z,54.88
2019-03-21T20:23:15.923Z,55.61
2019-03-21T20:26:24.617Z,55.53
2019-03-21T20:29:15.434Z,55.79
2019-03-21T20:31:46.744Z,55.97
2019-03-21T20:34:18.193Z,56.39
2019-03-21T20:37:08.198Z,56.48
2019-03-21T20:39:39.911Z,56.80
2019-03-21T20:42:11.610Z,57.05
2019-03-21T20:44:43.758Z,57.34
2019-03-21T20:47:35.375Z,57.66
2019-03-21T20:50:07.391Z,57.50
2019-03-21T20:52:57.434Z,57.15
2019-03-21T20:55:53.883Z,57.18
2019-03-21T20:58:24.013Z,57.60
2019-03-21T21:00:59.614Z,58.05
2019-03-21T21:03:50.572Z,58.13
2019-03-21T21:06:42.482Z,58.15
2019-03-21T21:09:14.946Z,58.40
2019-03-21T21:12:05.593Z,57.91
2019-03-21T21:15:01.217Z,57.90
2019-03-21T21:17:32.903Z,57.76
2019-03-21T21:20:04.431Z,58.07
2019-03-21T21:22:54.663Z,58.40
2019-03-21T21:25:46.772Z,58.59
2019-03-21T21:28:37.511Z,58.86
2019-03-21T21:31:08.980Z,59.25
2019-03-21T21:33:40.939Z,60.13
2019-03-21T21:36:31.232Z,60.82
2019-03-21T21:39:24.730Z,60.68
2019-03-21T21:41:56.460Z,61.20
2019-03-21T21:44:27.636Z,61.93
2019-03-21T21:47:18.078Z,62.34
2019-03-21T21:49:52.283Z,62.51
2019-03-21T21:52:23.558Z,62.26
2019-03-21T21:55:18.804Z,62.35
2019-03-21T21:58:08.705Z,62.78
2019-03-21T22:00:40.451Z,62.83
2019-03-21T22:03:14.920Z,62.98
2019-03-21T22:05:49.078Z,63.45
2019-03-21T22:08:39.286Z,63.56
2019-03-21T22:11:29.828Z,63.64
2019-03-21T22:14:19.651Z,63.69
2019-03-21T22:17:01.337Z,63.60
2019-03-21T22:19:32.859Z,64.17
2019-03-21T22:22:04.353Z,64.32
2019-03-21T22:24:54.520Z,64.41
2019-03-21T22:27:27.035Z,64.79
2019-03-21T22:29:58.273Z,64.76
2019-03-21T22:32:29.797Z,64.45
2019-03-21T22:35:01.099Z,64.64
2019-03-21T22:37:32.420Z,64.65
2019-03-21T22:40:03.795Z,65.28
2019-03-21T22:45:25.768Z,65.37
2019-03-21T22:48:15.651Z,65.57
2019-03-21T22:50:47.129Z,65.63
2019-03-21T22:53:18.653Z,65.71
2019-03-21T22:55:49.878Z,65.74
2019-03-21T22:58:31.465Z,65.91
2019-03-21T23:00:54.936Z,66.08
2019-03-21T23:03:45.190Z,66.20
2019-03-21T23:06:16.500Z,66.37
2019-03-21T23:08:48.383Z,66.13
2019-03-21T23:11:38.799Z,66.33
2019-03-21T23:14:29.550Z,66.26
2019-03-21T23:17:03.604Z,66.63
2019-03-21T23:19:53.777Z,67.01
2019-03-21T23:22:43.836Z,66.97
2019-03-21T23:25:33.735Z,67.23
2019-03-21T23:28:05.143Z,67.38
2019-03-21T23:30:36.833Z,67.79
2019-03-21T23:33:08.260Z,67.81
2019-03-21T23:35:39.438Z,68.29
2019-03-21T23:38:11.298Z,68.06
2019-03-21T23:40:42.652Z,67.76
2019-03-21T23:43:32.851Z,68.16
2019-03-21T23:46:04.440Z,68.34
2019-03-21T23:48:54.658Z,68.48
2019-03-21T23:51:44.509Z,68.52
2019-03-21T23:54:15.743Z,68.38
2019-03-21T23:56:47.378Z,68.17
2019-03-21T23:59:29.803Z,68.43
